Time;durP1;ratioP1;P1;durP2;ratioP2;P2;SDS_P1;SDS_P2;PMS_P1;PMS_P2;Temp;Humidity;BMP_temperature;BMP_pressure;BME280_temperature;BME280_humidity;BME280_pressure;Samples;Min_cycle;Max_cycle;Signal;HPM_P1;HPM_P2
2023/06/07 00:00:33;;;;;;;3.97;3.10;;;;;;;14.03;68.87;100644.47;5029039;28;20201;-69
2023/06/07 00:03:00;;;;;;;7.80;3.13;;;;;;;14.13;69.26;100644.50;5025165;28;20204;-67
2023/06/07 00:05:26;;;;;;;4.53;3.40;;;;;;;14.07;69.11;100642.72;5023649;28;20199;-67
2023/06/07 00:07:53;;;;;;;6.20;4.10;;;;;;;14.06;70.01;100632.94;5022789;28;20215;-68
2023/06/07 00:10:19;;;;;;;6.57;4.17;;;;;;;14.05;70.70;100652.47;5023073;28;20198;-69
2023/06/07 00:12:46;;;;;;;6.33;3.90;;;;;;;14.06;72.29;100640.94;5031974;28;20222;-68
2023/06/07 00:15:12;;;;;;;6.20;3.80;;;;;;;14.16;72.13;100648.06;5028291;28;20686;-69
2023/06/07 00:17:40;;;;;;;10.20;4.17;;;;;;;14.26;72.15;100648.97;5026158;28;20715;-67
2023/06/07 00:20:08;;;;;;;6.80;4.10;;;;;;;14.36;72.87;100635.66;5025432;28;20660;-68
2023/06/07 00:22:35;;;;;;;5.47;3.77;;;;;;;14.49;72.90;100646.41;5020843;28;20262;-70
2023/06/07 00:25:02;;;;;;;7.80;4.47;;;;;;;14.68;72.13;100641.06;5027007;28;20195;-68
2023/06/07 00:27:28;;;;;;;6.70;4.00;;;;;;;14.76;72.03;100637.53;5024591;28;20192;-68
2023/06/07 00:29:55;;;;;;;4.73;3.93;;;;;;;14.83;71.67;100640.22;5022786;28;20299;-68
2023/06/07 00:32:21;;;;;;;4.83;3.57;;;;;;;14.88;71.36;100638.44;5024709;28;20270;-68
2023/06/07 00:34:48;;;;;;;6.33;4.30;;;;;;;14.93;71.01;100633.09;5024378;28;21358;-68
2023/06/07 00:37:15;;;;;;;5.20;4.13;;;;;;;14.97;71.16;100634.88;5027814;28;20220;-67
2023/06/07 00:39:41;;;;;;;6.20;4.30;;;;;;;15.19;71.09;100628.59;5021265;28;20715;-67
2023/06/07 00:42:08;;;;;;;7.60;4.20;;;;;;;15.20;70.26;100633.03;5021641;28;20202;-67
2023/06/07 00:44:34;;;;;;;5.67;4.30;;;;;;;15.35;70.68;100632.16;5023497;28;20310;-68
2023/06/07 00:47:02;;;;;;;5.20;4.47;;;;;;;15.47;71.07;100631.22;5026454;28;20278;-67
2023/06/07 00:49:29;;;;;;;6.20;4.40;;;;;;;15.44;70.90;100628.56;5020788;28;20250;-68
2023/06/07 00:51:57;;;;;;;5.57;4.17;;;;;;;15.48;72.22;100630.34;5027688;28;20295;-67
2023/06/07 00:54:23;;;;;;;7.10;4.40;;;;;;;15.53;71.36;100625.88;5027048;28;20571;-67
2023/06/07 00:56:50;;;;;;;6.77;4.63;;;;;;;15.49;71.68;100621.44;5028917;28;20219;-67
2023/06/07 00:59:20;;;;;;;5.03;4.00;;;;;;;15.41;71.77;100623.25;5022504;28;20234;-68
2023/06/07 01:01:53;;;;;;;7.20;4.50;;;;;;;15.32;72.99;100622.38;5027455;28;20191;-68
2023/06/07 01:04:20;;;;;;;6.30;4.40;;;;;;;15.40;74.70;100630.34;5023294;28;20204;-68
2023/06/07 01:06:47;;;;;;;5.57;4.33;;;;;;;15.32;74.50;100626.81;5028222;28;20192;-67
2023/06/07 01:09:15;;;;;;;5.27;4.57;;;;;;;15.41;74.96;100623.25;5021805;28;20235;-67
2023/06/07 01:11:43;;;;;;;7.63;4.60;;;;;;;15.40;75.23;100629.47;5024701;28;20628;-68
2023/06/07 01:14:11;;;;;;;5.30;4.50;;;;;;;15.43;75.94;100624.13;5032093;28;20215;-67
2023/06/07 01:16:40;;;;;;;6.60;4.50;;;;;;;15.55;76.05;100622.28;5025877;28;20219;-67
2023/06/07 01:19:21;;;;;;;5.87;4.50;;;;;;;15.58;75.73;100616.97;5026604;28;20238;-67
2023/06/07 01:21:51;;;;;;;10.30;5.07;;;;;;;15.58;75.86;100622.31;5025357;28;20436;-67
2023/06/07 01:24:18;;;;;;;7.20;4.73;;;;;;;15.52;76.17;100630.31;5026893;28;20199;-68
2023/06/07 01:26:47;;;;;;;9.70;4.50;;;;;;;15.55;76.62;100624.97;5025090;28;20195;-67
2023/06/07 01:29:15;;;;;;;8.40;4.53;;;;;;;15.57;76.48;100619.63;5028765;28;20746;-68
2023/06/07 01:31:43;;;;;;;7.17;4.37;;;;;;;15.58;76.46;100616.97;5025056;28;20282;-67
2023/06/07 01:34:11;;;;;;;6.90;4.40;;;;;;;15.57;76.26;100614.28;5023561;28;20587;-67
2023/06/07 01:36:39;;;;;;;6.93;4.90;;;;;;;15.48;76.42;100615.19;5022744;28;20224;-67
2023/06/07 01:39:07;;;;;;;7.20;4.83;;;;;;;15.48;76.49;100609.88;5023625;28;20273;-68
2023/06/07 01:41:35;;;;;;;8.37;5.33;;;;;;;15.47;76.66;100608.09;5022102;28;20204;-69
2023/06/07 01:44:02;;;;;;;9.83;5.50;;;;;;;15.46;76.50;100608.97;5022250;28;20191;-67
2023/06/07 01:46:29;;;;;;;7.97;5.00;;;;;;;15.47;76.40;100613.44;5026705;28;20783;-67
2023/06/07 01:48:56;;;;;;;10.90;5.23;;;;;;;15.48;76.07;100601.84;5023214;28;20658;-68
2023/06/07 01:51:23;;;;;;;7.13;4.80;;;;;;;15.49;75.75;100603.63;5020597;28;20232;-67
2023/06/07 01:53:50;;;;;;;8.33;4.67;;;;;;;15.53;75.00;100605.41;5029012;28;20738;-67
2023/06/07 01:56:38;;;;;;;9.23;4.90;;;;;;;15.65;74.62;100601.84;5026233;28;20222;-67
2023/06/07 01:59:23;;;;;;;7.07;4.40;;;;;;;15.59;74.30;100594.72;5017525;28;20219;-67
2023/06/07 02:02:00;;;;;;;5.83;4.00;;;;;;;15.54;74.39;100595.59;5025057;28;20203;-67
2023/06/07 02:04:30;;;;;;;7.47;4.27;;;;;;;15.48;74.81;100598.31;5025559;28;20484;-67
2023/06/07 02:07:04;;;;;;;4.23;3.67;;;;;;;15.49;75.14;100598.28;5027003;28;20200;-67
2023/06/07 02:09:35;;;;;;;6.63;4.20;;;;;;;15.43;75.46;100592.97;5027355;28;20718;-67
2023/06/07 02:12:02;;;;;;;5.60;4.43;;;;;;;15.41;76.15;100588.53;5028840;28;20199;-68
2023/06/07 02:14:29;;;;;;;5.53;3.50;;;;;;;15.41;76.45;100592.09;5026063;28;20227;-68
2023/06/07 02:16:56;;;;;;;8.17;4.60;;;;;;;15.43;76.78;100589.41;5020638;28;20274;-67
2023/06/07 02:19:24;;;;;;;5.90;4.00;;;;;;;15.41;76.90;100591.22;5023380;28;20246;-67
2023/06/07 02:21:50;;;;;;;7.17;4.47;;;;;;;15.44;77.22;100589.41;5030081;28;20191;-67
2023/06/07 02:24:17;;;;;;;6.57;4.10;;;;;;;15.45;77.24;100585.84;5023222;28;20199;-67
2023/06/07 02:26:44;;;;;;;8.73;4.70;;;;;;;15.35;78.41;100586.78;5030086;28;20606;-67
2023/06/07 02:29:10;;;;;;;9.67;4.57;;;;;;;15.17;80.30;100584.16;5031942;28;20703;-68
2023/06/07 02:31:37;;;;;;;6.23;4.10;;;;;;;14.97;82.54;100589.53;5038795;28;20196;-67
2023/06/07 02:34:03;;;;;;;8.47;4.23;;;;;;;14.79;84.86;100585.09;5028543;28;20254;-67
2023/06/07 02:36:32;;;;;;;5.20;4.40;;;;;;;14.61;87.54;100586.00;5028711;28;20215;-68
2023/06/07 02:39:00;;;;;;;5.20;4.33;;;;;;;14.48;88.75;100586.88;5026241;28;20219;-67
2023/06/07 02:41:26;;;;;;;6.43;4.70;;;;;;;14.35;90.54;100596.59;5029330;28;20221;-67
2023/06/07 02:43:53;;;;;;;8.63;4.73;;;;;;;14.27;91.79;100602.78;5029814;28;20195;-68
2023/06/07 02:46:19;;;;;;;8.07;5.20;;;;;;;14.22;92.93;100593.91;5029203;28;20702;-67
2023/06/07 02:48:46;;;;;;;8.30;4.40;;;;;;;14.17;93.33;100601.00;5030223;28;20223;-68
2023/06/07 02:51:13;;;;;;;10.53;4.60;;;;;;;14.14;93.69;100601.00;5033068;28;20200;-67
2023/06/07 02:53:39;;;;;;;9.00;4.80;;;;;;;14.10;94.35;100592.13;5005778;28;20201;-67
2023/06/07 02:56:05;;;;;;;9.20;5.63;;;;;;;14.14;93.94;100595.69;5027583;28;20196;-67
2023/06/07 02:58:32;;;;;;;9.47;5.10;;;;;;;14.23;93.11;100591.25;5027422;28;20898;-67
2023/06/07 03:00:59;;;;;;;7.30;4.80;;;;;;;14.26;92.56;100590.38;5026419;28;20279;-70
2023/06/07 03:03:26;;;;;;;9.97;5.63;;;;;;;14.25;92.83;100594.81;5026533;28;20221;-67
2023/06/07 03:05:52;;;;;;;9.50;5.07;;;;;;;14.28;92.91;100593.91;5018986;28;20200;-69
2023/06/07 03:08:19;;;;;;;10.33;5.30;;;;;;;14.32;92.50;100590.38;5028041;28;20234;-67
2023/06/07 03:10:45;;;;;;;8.73;5.10;;;;;;;14.35;91.87;100598.38;5025100;28;20207;-67
2023/06/07 03:13:12;;;;;;;7.30;4.93;;;;;;;14.47;90.94;100594.88;5006841;28;20290;-67
2023/06/07 03:15:38;;;;;;;7.53;4.87;;;;;;;14.51;90.99;100586.88;5034008;28;20203;-70
2023/06/07 03:18:04;;;;;;;10.53;4.87;;;;;;;14.47;90.74;100585.09;5026512;28;20603;-67
2023/06/07 03:20:34;;;;;;;9.70;4.60;;;;;;;14.57;90.02;100592.22;5028477;28;20199;-68
2023/06/07 03:23:02;;;;;;;13.47;5.20;;;;;;;14.58;89.52;100587.78;5028959;28;20290;-69
2023/06/07 03:25:30;;;;;;;9.23;4.60;;;;;;;14.63;89.77;100591.31;5030846;28;20211;-69
2023/06/07 03:27:56;;;;;;;9.77;4.90;;;;;;;14.74;88.15;100589.53;5026773;28;20577;-67
2023/06/07 03:30:25;;;;;;;7.30;4.63;;;;;;;14.77;88.06;100589.53;5031068;28;20195;-69
2023/06/07 03:32:52;;;;;;;7.13;4.30;;;;;;;14.86;86.93;100591.34;5025658;28;20195;-68
2023/06/07 03:35:19;;;;;;;8.33;4.30;;;;;;;14.88;86.78;100589.53;5028191;28;20356;-68
2023/06/07 03:37:45;;;;;;;7.97;4.40;;;;;;;14.87;86.62;100583.31;5026188;28;20313;-69
2023/06/07 03:40:13;;;;;;;7.10;4.30;;;;;;;14.82;87.27;100595.78;5030636;28;20196;-67
2023/06/07 03:42:42;;;;;;;6.63;4.40;;;;;;;14.84;87.14;100586.00;5023241;28;20209;-70
2023/06/07 03:45:09;;;;;;;7.80;4.90;;;;;;;14.81;87.73;100590.41;5022765;28;20234;-69
2023/06/07 03:47:36;;;;;;;7.73;4.60;;;;;;;14.86;87.86;100592.22;5032390;28;20187;-69
2023/06/07 03:50:05;;;;;;;6.00;4.53;;;;;;;14.87;87.88;100604.66;5033295;28;20195;-70
2023/06/07 03:52:32;;;;;;;4.37;3.93;;;;;;;14.87;88.06;100598.44;5024626;28;20199;-69
2023/06/07 03:54:58;;;;;;;7.23;4.20;;;;;;;14.94;88.10;100603.75;5025114;28;20707;-67
2023/06/07 03:57:25;;;;;;;5.20;3.67;;;;;;;14.99;87.90;100601.97;5024556;28;20841;-68
2023/06/07 03:59:51;;;;;;;6.87;4.50;;;;;;;14.99;87.91;100595.75;5021956;28;20220;-68
2023/06/07 04:02:18;;;;;;;5.53;4.20;;;;;;;15.09;87.82;100599.28;5027480;28;20199;-66
2023/06/07 04:04:44;;;;;;;5.57;4.20;;;;;;;15.15;87.70;100601.94;5028870;28;20227;-67
2023/06/07 04:07:11;;;;;;;6.27;4.03;;;;;;;15.17;88.25;100602.81;5030146;28;20209;-68
2023/06/07 04:09:39;;;;;;;9.73;4.43;;;;;;;15.23;87.90;100603.72;5023093;28;20223;-67
2023/06/07 04:12:10;;;;;;;5.70;4.27;;;;;;;15.26;87.10;100603.72;5020397;28;20203;-67
2023/06/07 04:14:36;;;;;;;6.37;5.07;;;;;;;15.45;86.47;100596.53;5024241;28;20188;-67
2023/06/07 04:17:03;;;;;;;6.67;4.80;;;;;;;15.45;86.30;100591.19;5029304;28;20219;-68
2023/06/07 04:19:29;;;;;;;5.20;4.27;;;;;;;15.50;86.05;100599.19;5029474;28;20227;-67
2023/06/07 04:21:56;;;;;;;7.30;4.47;;;;;;;15.61;85.81;100600.97;5029296;28;20215;-67
2023/06/07 04:24:22;;;;;;;7.37;4.50;;;;;;;15.60;85.92;100601.84;5025160;28;20196;-68
2023/06/07 04:26:49;;;;;;;5.43;4.20;;;;;;;15.76;85.81;100607.13;5029701;28;20314;-67
2023/06/07 04:29:16;;;;;;;7.43;4.20;;;;;;;15.78;85.77;100600.91;5029817;28;20280;-67
2023/06/07 04:31:43;;;;;;;6.17;4.57;;;;;;;15.97;84.95;100601.69;5031336;28;20203;-67
2023/06/07 04:34:10;;;;;;;5.07;4.20;;;;;;;16.08;84.58;100605.22;5026002;28;20275;-68
2023/06/07 04:36:38;;;;;;;5.93;4.30;;;;;;;16.19;84.11;100605.13;5033370;28;20201;-68
2023/06/07 04:39:08;;;;;;;6.80;4.60;;;;;;;16.26;83.73;100609.53;5029662;28;20695;-67
2023/06/07 04:41:35;;;;;;;7.57;4.10;;;;;;;16.33;83.84;100613.06;5025804;28;20196;-67
2023/06/07 04:44:03;;;;;;;6.10;4.30;;;;;;;16.47;83.11;100613.88;5027628;28;20206;-68
2023/06/07 04:46:30;;;;;;;5.60;4.03;;;;;;;16.57;82.79;100608.44;5026482;28;20290;-68
2023/06/07 04:48:58;;;;;;;8.60;4.50;;;;;;;16.56;81.67;100606.66;5026842;28;20702;-67
2023/06/07 04:51:25;;;;;;;7.37;4.70;;;;;;;16.70;81.80;100606.56;5026154;28;20231;-67
2023/06/07 04:53:58;;;;;;;7.37;4.57;;;;;;;16.72;81.73;100610.13;5028728;28;20253;-68
2023/06/07 04:56:28;;;;;;;6.00;4.27;;;;;;;16.75;81.99;100611.88;5024938;28;20675;-67
2023/06/07 04:58:55;;;;;;;8.53;4.60;;;;;;;16.82;82.27;100606.50;5028560;28;20227;-68
2023/06/07 05:01:22;;;;;;;5.93;4.37;;;;;;;16.95;82.10;100601.91;5023725;28;20907;-68
2023/06/07 05:03:50;;;;;;;9.87;4.80;;;;;;;17.19;80.43;100606.13;5011219;28;20195;-67
2023/06/07 05:06:17;;;;;;;6.33;4.10;;;;;;;17.22;79.94;100608.81;5012506;28;20214;-68
2023/06/07 05:08:43;;;;;;;7.80;4.50;;;;;;;17.26;80.19;100605.19;5053558;23;20226;-68
2023/06/07 05:11:10;;;;;;;8.17;4.43;;;;;;;17.42;79.04;100609.47;5060212;28;20203;-67
2023/06/07 05:13:36;;;;;;;7.10;4.63;;;;;;;17.59;78.62;100605.69;5067655;28;20548;-68
2023/06/07 05:16:02;;;;;;;7.40;4.17;;;;;;;17.76;77.77;100603.75;5071161;28;20191;-67
2023/06/07 05:18:30;;;;;;;8.27;4.90;;;;;;;17.90;76.81;100604.44;5060405;28;21621;-67
2023/06/07 05:20:56;;;;;;;7.83;4.13;;;;;;;18.15;75.78;100610.38;5053789;28;20623;-68
2023/06/07 05:23:23;;;;;;;10.37;4.73;;;;;;;18.28;74.79;100611.97;5052738;28;20214;-70
2023/06/07 05:25:49;;;;;;;7.30;4.40;;;;;;;18.64;73.70;100605.19;5055490;28;20199;-67
2023/06/07 05:28:16;;;;;;;7.13;4.43;;;;;;;18.90;72.52;100614.63;5052436;28;20199;-67
2023/06/07 05:30:42;;;;;;;8.00;4.60;;;;;;;18.95;72.18;100604.69;5052886;28;20190;-66
2023/06/07 05:33:08;;;;;;;8.77;4.37;;;;;;;18.95;72.08;100602.00;5053220;28;20213;-67
2023/06/07 05:35:35;;;;;;;9.37;4.90;;;;;;;18.83;72.19;100615.63;5054193;28;20203;-66
2023/06/07 05:38:02;;;;;;;6.70;4.57;;;;;;;18.69;71.81;100615.84;5054736;28;20218;-69
2023/06/07 05:40:28;;;;;;;9.03;4.80;;;;;;;18.50;72.86;100619.69;5051838;28;20321;-67
2023/06/07 05:42:56;;;;;;;8.37;4.77;;;;;;;18.29;73.42;100620.91;5049757;28;20198;-67
2023/06/07 05:45:23;;;;;;;7.93;4.63;;;;;;;18.21;72.51;100618.31;5050700;28;20202;-66
2023/06/07 05:47:49;;;;;;;8.23;4.70;;;;;;;18.20;72.93;100611.19;5063664;28;20233;-64
2023/06/07 05:50:19;;;;;;;6.73;4.37;;;;;;;18.28;71.62;100617.31;5063609;28;20213;-64
2023/06/07 05:52:50;;;;;;;8.87;4.27;;;;;;;18.35;70.94;100613.63;5052977;28;21712;-68
2023/06/07 05:55:16;;;;;;;7.47;4.57;;;;;;;18.65;69.73;100609.63;5054741;28;20200;-69
2023/06/07 05:57:43;;;;;;;11.10;4.33;;;;;;;18.77;68.51;100608.53;5058149;28;20221;-68
2023/06/07 06:00:11;;;;;;;7.50;4.43;;;;;;;19.00;67.96;100606.38;5057902;28;20632;-67
2023/06/07 06:02:38;;;;;;;8.97;4.20;;;;;;;19.12;67.81;100607.06;5040831;28;20252;-67
2023/06/07 06:05:06;;;;;;;10.37;4.33;;;;;;;19.28;67.49;100612.13;5066379;28;20190;-70
2023/06/07 06:07:32;;;;;;;7.80;4.63;;;;;;;19.26;67.27;100611.28;5055269;28;20191;-70
2023/06/07 06:09:59;;;;;;;7.43;4.63;;;;;;;19.26;68.11;100611.28;5059188;28;20230;-68
2023/06/07 06:12:25;;;;;;;10.77;5.57;;;;;;;19.39;67.92;100610.13;5055339;28;20215;-69
2023/06/07 06:14:52;;;;;;;6.93;4.80;;;;;;;19.63;67.51;100605.22;5059961;28;20668;-68
2023/06/07 06:17:18;;;;;;;6.50;4.43;;;;;;;19.41;67.33;100607.41;5064603;28;20567;-67
2023/06/07 06:19:45;;;;;;;7.50;4.60;;;;;;;19.61;67.72;100607.94;5054952;28;20641;-68
2023/06/07 06:22:11;;;;;;;7.10;4.20;;;;;;;19.77;66.72;100610.31;5056736;28;20194;-68
2023/06/07 06:24:38;;;;;;;11.27;4.77;;;;;;;19.83;66.67;100611.06;5061133;28;20220;-67
2023/06/07 06:27:06;;;;;;;9.03;4.77;;;;;;;20.21;66.17;100609.34;5060474;28;20194;-68
2023/06/07 06:29:32;;;;;;;5.27;4.57;;;;;;;20.54;64.29;100607.72;5054616;28;20821;-67
2023/06/07 06:32:00;;;;;;;5.87;4.33;;;;;;;20.85;62.93;100616.81;5064373;28;20661;-68
2023/06/07 06:34:28;;;;;;;11.60;4.63;;;;;;;21.04;61.50;100609.16;5054611;28;20205;-69
2023/06/07 06:36:57;;;;;;;11.23;5.00;;;;;;;21.28;60.51;100615.75;5056953;28;20194;-68
2023/06/07 06:39:23;;;;;;;6.00;3.80;;;;;;;21.50;60.10;100611.50;5056950;28;20763;-68
2023/06/07 06:41:50;;;;;;;7.38;4.50;;;;;;;21.82;59.63;100616.00;5061701;28;20635;-68
2023/06/07 06:44:16;;;;;;;9.70;4.70;;;;;;;21.93;59.48;100614.78;5059441;28;20732;-68
2023/06/07 06:46:43;;;;;;;8.98;4.43;;;;;;;21.77;59.00;100626.03;5055520;28;20285;-67
2023/06/07 06:49:09;;;;;;;7.05;4.05;;;;;;;21.97;58.16;100608.38;5056483;28;20595;-70
2023/06/07 06:51:39;;;;;;;11.57;4.80;;;;;;;22.29;57.23;100620.91;5064628;28;20673;-68
2023/06/07 06:54:09;;;;;;;8.13;4.60;;;;;;;22.35;58.20;100609.94;5052458;28;20195;-68
2023/06/07 06:56:36;;;;;;;11.27;4.35;;;;;;;22.43;58.30;100619.59;5058816;28;20580;-70
2023/06/07 06:59:02;;;;;;;8.80;4.75;;;;;;;22.50;57.31;100622.97;5057427;28;20694;-68
2023/06/07 07:01:48;;;;;;;6.88;4.40;;;;;;;22.46;57.85;100619.47;5061643;28;20682;-68
2023/06/07 07:04:15;;;;;;;9.63;4.70;;;;;;;22.53;56.94;100612.06;5055924;28;20195;-68
2023/06/07 07:06:43;;;;;;;8.27;4.60;;;;;;;22.54;52.39;100623.75;5058366;28;20199;-68
2023/06/07 07:09:09;;;;;;;8.85;4.80;;;;;;;22.16;49.77;100624.00;5054623;28;20223;-67
2023/06/07 07:11:39;;;;;;;8.25;4.93;;;;;;;22.22;50.08;100625.63;5056343;28;20202;-68
2023/06/07 07:14:05;;;;;;;6.53;4.60;;;;;;;22.46;50.15;100637.50;5061352;28;20281;-68
2023/06/07 07:16:34;;;;;;;21.55;5.97;;;;;;;22.64;49.69;100630.59;5057615;28;20277;-68
2023/06/07 07:19:04;;;;;;;14.60;5.47;;;;;;;22.90;47.59;100633.38;5050824;28;20246;-68
2023/06/07 07:21:31;;;;;;;14.00;4.88;;;;;;;23.59;46.43;100631.88;5054262;28;20382;-68
2023/06/07 07:23:57;;;;;;;17.20;5.90;;;;;;;24.80;43.44;100630.81;5056911;28;20565;-69
2023/06/07 07:26:25;;;;;;;14.98;5.28;;;;;;;25.50;40.97;100638.66;5057799;28;20223;-68
2023/06/07 07:28:53;;;;;;;18.38;5.85;;;;;;;26.96;38.29;100624.59;5055015;28;20210;-66
2023/06/07 07:31:19;;;;;;;20.25;5.00;;;;;;;28.13;35.15;100634.72;5054399;28;20658;-65
2023/06/07 07:33:46;;;;;;;29.13;6.25;;;;;;;28.94;32.94;100635.63;5050196;28;20660;-67
2023/06/07 07:36:12;;;;;;;14.52;4.72;;;;;;;30.50;30.47;100635.91;5057645;28;20205;-66
2023/06/07 07:38:40;;;;;;;10.88;4.78;;;;;;;30.45;29.96;100637.19;5068214;28;20756;-66
2023/06/07 07:41:06;;;;;;;15.77;4.78;;;;;;;31.03;29.65;100639.69;5066240;28;20252;-65
2023/06/07 07:43:33;;;;;;;14.55;4.70;;;;;;;31.15;28.61;100641.63;5061103;28;20460;-65
2023/06/07 07:46:04;;;;;;;6.38;4.05;;;;;;;30.66;28.83;100640.41;5059103;28;20215;-68
2023/06/07 07:48:30;;;;;;;8.43;4.78;;;;;;;29.90;29.49;100636.09;5059314;28;20214;-66
2023/06/07 07:50:57;;;;;;;12.02;4.35;;;;;;;29.71;30.09;100640.97;5056151;28;20302;-66
2023/06/07 07:53:23;;;;;;;6.90;4.63;;;;;;;29.70;29.73;100641.94;5058723;28;20202;-66
2023/06/07 07:55:50;;;;;;;8.75;4.50;;;;;;;29.89;29.53;100639.81;5058301;28;20311;-69
2023/06/07 07:58:16;;;;;;;12.45;4.57;;;;;;;30.24;29.65;100632.13;5059090;28;20210;-68
2023/06/07 08:00:43;;;;;;;14.95;4.85;;;;;;;29.98;30.19;100634.72;5057469;28;20206;-68
2023/06/07 08:03:09;;;;;;;12.73;4.93;;;;;;;29.85;30.32;100632.78;5057383;28;20217;-69
2023/06/07 08:05:36;;;;;;;7.55;4.28;;;;;;;29.77;30.67;100639.69;5060108;28;20656;-69
2023/06/07 08:08:03;;;;;;;14.70;5.35;;;;;;;29.46;30.51;100632.50;5054735;28;20274;-67
2023/06/07 08:10:29;;;;;;;13.63;5.10;;;;;;;29.76;30.30;100632.47;5062939;28;20581;-69
2023/06/07 08:12:56;;;;;;;10.27;4.65;;;;;;;29.57;30.64;100633.59;5058803;28;20966;-66
2023/06/07 08:15:22;;;;;;;11.38;5.80;;;;;;;30.00;30.03;100633.66;5064392;28;20201;-70
2023/06/07 08:17:49;;;;;;;9.50;4.75;;;;;;;29.50;30.67;100629.50;5061113;28;20200;-69
2023/06/07 08:20:17;;;;;;;7.65;5.00;;;;;;;28.69;31.52;100628.81;5054530;28;20681;-69
2023/06/07 08:22:43;;;;;;;6.40;4.65;;;;;;;27.81;32.18;100622.88;5051647;28;20202;-69
2023/06/07 08:25:10;;;;;;;7.95;4.90;;;;;;;27.75;31.59;100618.66;5059195;28;20214;-69
2023/06/07 08:27:37;;;;;;;7.15;4.40;;;;;;;27.48;33.45;100615.50;5055095;28;20225;-68
2023/06/07 08:30:06;;;;;;;7.18;4.05;;;;;;;27.63;33.67;100613.88;5045332;28;20685;-68
2023/06/07 08:32:33;;;;;;;7.13;4.53;;;;;;;27.41;34.50;100614.09;5058909;28;20659;-68
2023/06/07 08:35:00;;;;;;;6.28;4.60;;;;;;;27.03;34.08;100602.47;5053525;28;20199;-66
2023/06/07 08:37:26;;;;;;;5.43;4.50;;;;;;;26.95;34.72;100614.66;5056565;28;20249;-66
2023/06/07 08:39:52;;;;;;;8.40;4.65;;;;;;;26.87;34.87;100617.78;5039285;28;20230;-68
2023/06/07 08:42:19;;;;;;;8.63;5.55;;;;;;;27.02;34.90;100614.31;5061222;28;20198;-69
2023/06/07 08:44:45;;;;;;;13.48;5.20;;;;;;;26.52;35.91;100620.41;5054649;28;20194;-69
2023/06/07 08:47:13;;;;;;;14.18;5.28;;;;;;;25.93;37.09;100620.47;5053809;28;20198;-68
2023/06/07 08:49:42;;;;;;;12.02;5.70;;;;;;;26.03;37.15;100612.81;5059711;28;20287;-69
2023/06/07 08:52:09;;;;;;;11.27;5.60;;;;;;;26.15;37.15;100614.94;5063189;28;20555;-70
2023/06/07 08:54:43;;;;;;;10.02;5.18;;;;;;;26.49;37.83;100611.53;5053280;28;20587;-69
2023/06/07 08:57:13;;;;;;;16.92;5.10;;;;;;;26.64;37.33;100616.19;5056257;28;20285;-68
2023/06/07 08:59:44;;;;;;;18.25;5.95;;;;;;;26.71;37.04;100623.09;5050779;28;20222;-69
2023/06/07 09:02:12;;;;;;;28.67;6.15;;;;;;;26.81;36.83;100618.94;5059709;28;20654;-66
2023/06/07 09:04:39;;;;;;;8.68;5.20;;;;;;;27.03;36.39;100609.75;5062097;28;20221;-68
2023/06/07 09:07:07;;;;;;;13.57;5.25;;;;;;;27.34;36.47;100607.22;5054531;28;20515;-70
2023/06/07 09:09:35;;;;;;;9.55;4.88;;;;;;;27.71;34.90;100614.34;5051581;28;20219;-70
2023/06/07 09:12:02;;;;;;;18.15;5.78;;;;;;;28.03;34.33;100622.59;5055994;28;20200;-66
2023/06/07 09:14:29;;;;;;;9.85;4.85;;;;;;;27.89;34.91;100617.88;5056158;28;20222;-69
2023/06/07 09:16:58;;;;;;;12.30;5.25;;;;;;;28.02;34.70;100615.41;5053743;28;20198;-71
2023/06/07 09:19:39;;;;;;;9.95;5.00;;;;;;;28.02;34.89;100612.66;5051774;28;20249;-69
2023/06/07 09:22:14;;;;;;;10.63;5.00;;;;;;;28.25;33.91;100616.84;5058967;28;20216;-69
2023/06/07 09:24:40;;;;;;;8.18;5.15;;;;;;;28.23;33.45;100613.31;5058143;28;20222;-69
2023/06/07 09:27:10;;;;;;;14.13;5.18;;;;;;;28.16;32.93;100609.16;5054752;28;20647;-67
2023/06/07 09:29:43;;;;;;;6.80;5.00;;;;;;;28.46;32.97;100618.38;5065025;28;20221;-67
2023/06/07 09:32:20;;;;;;;7.57;4.93;;;;;;;28.71;32.51;100613.25;5060253;28;20202;-68
2023/06/07 09:34:49;;;;;;;8.95;5.13;;;;;;;29.07;31.50;100611.22;5051009;28;20576;-68
2023/06/07 09:37:20;;;;;;;8.02;5.05;;;;;;;29.27;31.53;100613.63;5054577;28;20629;-69
2023/06/07 09:39:53;;;;;;;6.22;4.95;;;;;;;29.11;31.38;100607.31;5058923;28;20222;-68
2023/06/07 09:42:19;;;;;;;9.65;4.97;;;;;;;28.91;32.09;100614.84;5052684;28;20209;-68
2023/06/07 09:44:46;;;;;;;5.70;4.97;;;;;;;29.33;31.71;100605.94;5054502;28;20195;-68
2023/06/07 09:47:21;;;;;;;7.47;5.20;;;;;;;28.64;32.68;100610.97;5060013;28;20222;-67
2023/06/07 09:49:48;;;;;;;8.82;5.53;;;;;;;28.26;33.53;100615.88;5055654;28;20214;-69
2023/06/07 09:52:15;;;;;;;10.57;5.53;;;;;;;28.60;33.54;100618.44;5063618;28;20289;-69
2023/06/07 09:54:43;;;;;;;10.90;5.70;;;;;;;28.77;33.65;100612.00;5041271;28;20225;-70
2023/06/07 09:57:23;;;;;;;8.52;5.85;;;;;;;29.83;31.66;100607.41;5055888;28;20225;-70
2023/06/07 10:00:17;;;;;;;11.13;5.28;;;;;;;30.43;30.23;100604.50;5054049;28;20241;-71
2023/06/07 10:02:45;;;;;;;7.55;5.35;;;;;;;30.85;29.23;100610.84;5053910;28;20281;-70
2023/06/07 10:05:12;;;;;;;10.18;4.70;;;;;;;31.27;29.29;100612.56;5057856;28;20202;-68
2023/06/07 10:07:47;;;;;;;6.75;5.03;;;;;;;31.54;28.84;100607.00;5056199;28;20195;-68
2023/06/07 10:10:18;;;;;;;6.22;5.13;;;;;;;31.22;29.08;100608.34;5055925;28;20221;-71
2023/06/07 10:12:46;;;;;;;10.80;4.95;;;;;;;30.86;29.39;100590.72;5046122;28;20657;-69
2023/06/07 10:15:15;;;;;;;9.65;5.65;;;;;;;30.62;29.48;100600.56;5059136;28;20199;-69
2023/06/07 10:17:55;;;;;;;7.53;5.60;;;;;;;30.30;30.80;100587.13;5051812;28;20629;-69
2023/06/07 10:20:29;;;;;;;9.85;5.13;;;;;;;30.20;30.43;100600.53;5059566;28;20224;-67
2023/06/07 10:23:08;;;;;;;9.82;5.93;;;;;;;29.71;31.18;100599.13;5060830;28;20281;-69
2023/06/07 10:25:39;;;;;;;6.50;5.22;;;;;;;29.96;30.24;100596.59;5055568;28;20282;-70
2023/06/07 10:28:19;;;;;;;10.30;5.35;;;;;;;29.85;30.64;100600.00;5050612;28;20282;-68
2023/06/07 10:30:59;;;;;;;10.18;5.60;;;;;;;29.87;31.42;100594.44;5053465;28;20194;-70
2023/06/07 10:33:26;;;;;;;7.00;5.80;;;;;;;29.85;31.20;100597.28;5060203;28;20226;-69
2023/06/07 10:35:54;;;;;;;7.25;5.88;;;;;;;29.60;31.69;100602.50;5053442;28;20245;-69
2023/06/07 10:38:21;;;;;;;8.63;5.18;;;;;;;29.42;32.12;100601.78;5053295;28;20202;-70
2023/06/07 10:40:47;;;;;;;8.02;5.90;;;;;;;29.56;31.22;100590.91;5065290;28;20190;-69
2023/06/07 10:43:14;;;;;;;11.15;6.25;;;;;;;29.24;31.77;100597.44;5037223;28;20205;-68
2023/06/07 10:45:40;;;;;;;7.68;5.85;;;;;;;29.21;32.27;100587.56;5061942;28;20195;-70
2023/06/07 10:48:39;;;;;;;9.00;5.72;;;;;;;29.00;33.10;100588.88;5058055;28;20214;-69
2023/06/07 10:51:06;;;;;;;9.75;5.60;;;;;;;28.86;33.22;100580.66;5062418;28;20670;-69
2023/06/07 10:53:48;;;;;;;6.75;5.70;;;;;;;28.57;33.56;100588.66;5061519;28;20238;-68
2023/06/07 10:56:30;;;;;;;8.93;5.90;;;;;;;28.39;34.38;100582.41;5059915;28;20217;-70
2023/06/07 10:58:59;;;;;;;9.02;5.53;;;;;;;28.57;33.73;100590.50;5067545;28;20237;-69
2023/06/07 11:01:26;;;;;;;9.68;5.88;;;;;;;28.69;33.09;100579.75;5056105;28;20191;-70
2023/06/07 11:03:53;;;;;;;13.43;6.00;;;;;;;28.70;33.13;100586.97;5054547;28;20191;-69
2023/06/07 11:06:20;;;;;;;6.38;5.40;;;;;;;28.77;32.74;100579.28;5059913;28;20191;-64
2023/06/07 11:08:47;;;;;;;9.27;5.03;;;;;;;29.13;32.68;100575.38;5079274;23;20231;-68
2023/06/07 11:11:41;;;;;;;7.30;5.68;;;;;;;28.19;34.11;100592.66;5053292;28;20749;-67
2023/06/07 11:14:09;;;;;;;9.38;6.32;;;;;;;27.64;35.44;100584.81;5043208;28;20230;-67
2023/06/07 11:16:37;;;;;;;8.00;6.35;;;;;;;27.32;35.57;100587.38;5043047;28;20281;-67
2023/06/07 11:19:11;;;;;;;7.90;6.03;;;;;;;27.30;36.32;100582.97;5045710;28;20226;-66
2023/06/07 11:22:00;;;;;;;8.10;6.20;;;;;;;27.64;35.71;100579.38;5029102;28;20191;-67
2023/06/07 11:24:27;;;;;;;9.77;6.53;;;;;;;27.32;36.23;100583.78;5021022;28;20240;-66
2023/06/07 11:26:54;;;;;;;8.60;6.03;;;;;;;27.29;36.64;100583.94;5026989;28;20204;-67
2023/06/07 11:29:21;;;;;;;9.27;5.82;;;;;;;26.98;37.15;100571.94;5028059;28;20222;-67